Time;durP1;ratioP1;P1;durP2;ratioP2;P2;SDS_P1;SDS_P2;PMS_P1;PMS_P2;Temp;Humidity;BMP_temperature;BMP_pressure;BME280_temperature;BME280_humidity;BME280_pressure;Samples;Min_cycle;Max_cycle;Signal;HPM_P1;HPM_P2
2022/10/12 00:00:12;;;;;;;15.02;7.70;;;;;;;11.51;69.50;102652.34;6243534;22;20061;-72
2022/10/12 00:02:37;;;;;;;15.57;7.65;;;;;;;11.52;69.25;102657.63;6218474;22;20020;-73
2022/10/12 00:05:03;;;;;;;15.73;8.05;;;;;;;11.52;68.65;102651.50;6244310;22;20000;-73
2022/10/12 00:07:29;;;;;;;19.17;7.85;;;;;;;11.45;68.61;102650.38;6235974;22;20427;-73
2022/10/12 00:09:54;;;;;;;15.55;7.10;;;;;;;11.43;68.51;102644.19;6246707;22;20019;-74
2022/10/12 00:12:19;;;;;;;18.55;7.18;;;;;;;11.38;68.38;102648.38;6239552;22;20043;-73
2022/10/12 00:14:45;;;;;;;13.85;7.18;;;;;;;11.44;68.54;102650.31;6247180;22;20084;-73
2022/10/12 00:17:10;;;;;;;22.40;7.90;;;;;;;11.34;68.69;102649.94;6245956;22;20110;-72
2022/10/12 00:19:35;;;;;;;16.98;7.40;;;;;;;11.28;68.86;102652.31;6238027;22;20672;-73
2022/10/12 00:22:01;;;;;;;15.98;7.72;;;;;;;11.23;68.76;102648.66;6249650;22;20145;-73
2022/10/12 00:24:26;;;;;;;21.17;8.52;;;;;;;11.10;69.19;102645.53;6244170;22;20031;-73
2022/10/12 00:26:51;;;;;;;16.38;8.63;;;;;;;11.04;69.37;102648.75;6250254;22;20007;-73
2022/10/12 00:29:17;;;;;;;18.00;8.25;;;;;;;11.04;69.02;102648.75;6245921;22;20008;-73
2022/10/12 00:31:42;;;;;;;17.73;7.65;;;;;;;11.01;69.07;102648.66;6246826;22;20077;-72
2022/10/12 00:34:08;;;;;;;14.70;7.78;;;;;;;10.95;69.18;102649.31;6244432;22;20008;-73
2022/10/12 00:36:34;;;;;;;17.13;8.05;;;;;;;10.99;68.52;102645.09;6243133;22;20086;-73
2022/10/12 00:39:02;;;;;;;16.20;7.63;;;;;;;10.93;69.04;102645.72;6220942;22;20011;-72
2022/10/12 00:41:32;;;;;;;14.55;7.28;;;;;;;10.90;69.05;102644.72;6241157;22;20537;-73
2022/10/12 00:43:58;;;;;;;14.70;7.30;;;;;;;10.87;68.71;102636.75;6246064;22;20007;-73
2022/10/12 00:46:38;;;;;;;14.85;7.15;;;;;;;10.81;68.95;102642.63;6249732;22;20345;-73
2022/10/12 00:49:13;;;;;;;13.20;6.78;;;;;;;10.81;68.64;102646.94;6244020;22;20012;-72
2022/10/12 00:51:40;;;;;;;16.20;7.88;;;;;;;10.73;69.07;102636.22;6219512;22;20872;-72
2022/10/12 00:54:11;;;;;;;14.75;7.18;;;;;;;10.76;68.64;102640.66;6239807;22;20083;-72
2022/10/12 00:56:40;;;;;;;16.58;7.68;;;;;;;10.78;68.71;102639.03;6246351;22;20339;-74
2022/10/12 00:59:09;;;;;;;19.80;7.40;;;;;;;10.76;68.83;102636.34;6249345;22;20039;-73
2022/10/12 01:01:35;;;;;;;14.40;7.50;;;;;;;10.79;68.76;102633.88;6238808;22;20316;-73
2022/10/12 01:04:02;;;;;;;17.23;7.78;;;;;;;10.76;68.91;102638.94;6244063;22;20422;-72
2022/10/12 01:06:29;;;;;;;14.05;7.20;;;;;;;10.68;68.66;102637.75;6243172;22;20030;-73
2022/10/12 01:08:55;;;;;;;16.17;7.25;;;;;;;10.66;68.50;102633.31;6249896;22;20244;-73
2022/10/12 01:11:21;;;;;;;17.50;8.18;;;;;;;10.49;69.85;102637.84;6243701;22;20003;-73
2022/10/12 01:13:46;;;;;;;18.40;8.07;;;;;;;10.50;70.21;102636.97;6247535;22;20506;-72
2022/10/12 01:16:40;;;;;;;15.68;7.18;;;;;;;10.55;69.55;102630.25;6252447;22;20022;-73
2022/10/12 01:19:21;;;;;;;15.77;7.63;;;;;;;10.51;69.18;102628.34;6247262;22;20042;-73
2022/10/12 01:22:08;;;;;;;16.35;7.90;;;;;;;10.43;69.42;102629.75;6249720;22;20236;-73
2022/10/12 01:24:40;;;;;;;16.17;7.20;;;;;;;10.42;69.58;102626.25;6245734;22;20095;-73
2022/10/12 01:27:37;;;;;;;15.88;7.72;;;;;;;10.30;69.90;102617.91;6247701;22;20016;-74
2022/10/12 01:30:14;;;;;;;17.27;8.23;;;;;;;10.23;70.71;102614.97;6161744;22;20455;-73
2022/10/12 01:32:40;;;;;;;15.80;8.32;;;;;;;10.19;70.45;102608.72;6246804;22;20000;-73
2022/10/12 01:35:15;;;;;;;16.23;7.95;;;;;;;10.24;70.59;102615.06;6250992;22;20015;-72
2022/10/12 01:37:52;;;;;;;17.17;8.20;;;;;;;10.22;70.55;102616.69;6215836;22;20344;-71
2022/10/12 01:40:43;;;;;;;17.35;8.15;;;;;;;10.25;69.77;102608.09;6250129;22;20003;-73
2022/10/12 01:43:09;;;;;;;15.90;7.35;;;;;;;10.24;69.52;102608.94;6245728;22;20015;-72
2022/10/12 01:45:34;;;;;;;15.07;7.60;;;;;;;10.23;69.40;102610.66;6221565;22;20323;-72
2022/10/12 01:48:01;;;;;;;14.18;7.18;;;;;;;10.21;69.11;102604.47;6245230;22;20011;-72
2022/10/12 01:50:51;;;;;;;14.50;7.15;;;;;;;10.16;69.79;102598.16;6248724;22;20008;-72
2022/10/12 01:53:28;;;;;;;10.80;6.50;;;;;;;10.20;69.27;102592.28;6235868;22;20007;-73
2022/10/12 01:56:06;;;;;;;15.93;7.25;;;;;;;10.19;69.57;102593.09;6251349;22;20011;-72
2022/10/12 01:58:52;;;;;;;17.45;7.85;;;;;;;10.11;70.15;102590.16;6245541;22;20008;-73
2022/10/12 02:01:28;;;;;;;15.50;7.88;;;;;;;10.17;69.93;102594.75;6240554;22;20402;-73
2022/10/12 02:04:21;;;;;;;15.32;7.47;;;;;;;10.15;69.73;102591.16;6247923;22;20088;-73
2022/10/12 02:06:55;;;;;;;16.77;8.10;;;;;;;9.98;70.69;102597.38;6216923;22;20007;-72
2022/10/12 02:09:25;;;;;;;14.23;8.25;;;;;;;10.05;69.90;102599.41;6245872;22;20214;-73
2022/10/12 02:11:54;;;;;;;18.85;8.48;;;;;;;10.01;70.61;102606.19;6244094;22;20014;-72
2022/10/12 02:14:24;;;;;;;14.40;7.75;;;;;;;9.99;69.71;102580.91;6248395;22;20443;-72
2022/10/12 02:17:03;;;;;;;14.23;7.20;;;;;;;10.03;69.98;102586.31;6248865;22;20500;-72
2022/10/12 02:19:34;;;;;;;17.75;7.70;;;;;;;10.08;69.91;102589.09;6243957;22;20035;-73
2022/10/12 02:22:03;;;;;;;11.90;7.00;;;;;;;10.08;69.88;102583.91;6220513;22;20505;-73
2022/10/12 02:24:31;;;;;;;16.35;7.45;;;;;;;10.05;69.68;102581.19;6217884;22;20489;-73
2022/10/12 02:26:59;;;;;;;18.25;8.20;;;;;;;10.03;69.31;102570.69;6251377;22;20426;-72
2022/10/12 02:29:35;;;;;;;14.20;7.97;;;;;;;9.98;69.83;102572.22;6241721;22;20439;-72
2022/10/12 02:32:07;;;;;;;16.50;8.13;;;;;;;9.95;69.74;102571.16;6245207;22;20003;-72
2022/10/12 02:34:45;;;;;;;20.75;7.88;;;;;;;9.96;69.37;102567.75;6221103;22;20007;-72
2022/10/12 02:37:45;;;;;;;19.25;9.07;;;;;;;9.88;69.60;102575.22;6242573;22;20016;-72
2022/10/12 02:40:14;;;;;;;18.75;9.02;;;;;;;9.83;69.82;102576.75;6248142;22;20486;-73
2022/10/12 02:42:46;;;;;;;16.50;8.23;;;;;;;9.87;69.53;102563.06;6242234;22;20039;-72
2022/10/12 02:45:13;;;;;;;19.55;8.50;;;;;;;9.87;69.70;102570.88;6249654;22;20424;-72
2022/10/12 02:47:40;;;;;;;21.65;8.75;;;;;;;9.86;68.92;102558.66;6240461;22;20373;-73
2022/10/12 02:50:08;;;;;;;19.08;8.38;;;;;;;9.84;69.31;102557.69;6246133;22;20018;-73
2022/10/12 02:52:33;;;;;;;18.40;8.65;;;;;;;9.82;69.15;102564.53;6242406;22;20008;-72
2022/10/12 02:55:00;;;;;;;15.20;8.20;;;;;;;9.85;69.21;102564.69;6241476;22;20014;-73
2022/10/12 02:57:25;;;;;;;15.20;8.10;;;;;;;9.79;69.17;102559.22;6246924;22;20007;-72
2022/10/12 02:59:51;;;;;;;16.20;8.65;;;;;;;9.78;68.90;102558.31;6244305;22;20336;-73
2022/10/12 03:02:16;;;;;;;15.05;7.70;;;;;;;9.76;69.30;102559.06;6220664;22;20249;-73
2022/10/12 03:04:41;;;;;;;15.40;8.45;;;;;;;9.72;68.99;102546.75;6249726;22;20007;-72
2022/10/12 03:07:07;;;;;;;20.25;8.88;;;;;;;9.73;69.12;102554.63;6245664;22;20105;-72
2022/10/12 03:09:32;;;;;;;19.88;8.38;;;;;;;9.74;68.96;102540.78;6247834;22;20004;-73
2022/10/12 03:11:57;;;;;;;16.55;8.52;;;;;;;9.71;69.07;102551.06;6244459;22;20027;-72
2022/10/12 03:14:25;;;;;;;18.90;9.55;;;;;;;9.65;69.44;102547.28;6249362;22;20121;-72
2022/10/12 03:16:51;;;;;;;16.75;8.90;;;;;;;9.70;69.10;102550.97;6251104;22;20530;-72
2022/10/12 03:19:16;;;;;;;21.08;9.43;;;;;;;9.65;69.28;102552.50;6242789;22;20008;-73
2022/10/12 03:21:42;;;;;;;16.80;9.02;;;;;;;9.64;69.69;102542.91;6249167;22;20015;-74
2022/10/12 03:24:07;;;;;;;15.23;8.48;;;;;;;9.67;69.29;102543.94;6240515;22;20012;-72
2022/10/12 03:26:33;;;;;;;17.50;8.35;;;;;;;9.67;69.12;102545.66;6247977;22;20330;-72
2022/10/12 03:28:58;;;;;;;15.98;8.60;;;;;;;9.72;68.90;102544.13;6248236;22;20030;-73
2022/10/12 03:31:24;;;;;;;15.38;8.85;;;;;;;9.66;69.14;102549.97;6239604;22;20004;-72
2022/10/12 03:33:49;;;;;;;17.85;9.10;;;;;;;9.67;69.43;102548.25;6246290;22;20007;-72
2022/10/12 03:36:14;;;;;;;16.88;8.82;;;;;;;9.67;69.47;102549.16;6242872;22;20576;-73
2022/10/12 03:38:40;;;;;;;18.27;8.90;;;;;;;9.77;69.35;102540.91;6247467;22;20027;-73
2022/10/12 03:41:05;;;;;;;19.40;9.90;;;;;;;9.81;68.95;102549.75;6248995;22;20045;-73
2022/10/12 03:43:31;;;;;;;20.73;9.60;;;;;;;9.81;68.76;102549.75;6237565;22;20230;-73
2022/10/12 03:45:56;;;;;;;20.48;9.57;;;;;;;9.81;68.96;102547.16;6248249;22;20339;-73
2022/10/12 03:48:21;;;;;;;19.85;10.05;;;;;;;9.81;69.01;102547.16;6239998;22;20743;-74
2022/10/12 03:50:48;;;;;;;17.52;9.52;;;;;;;9.81;69.32;102543.66;6250533;22;20065;-73
2022/10/12 03:53:15;;;;;;;18.85;9.35;;;;;;;9.77;69.10;102546.13;6246731;22;20056;-74
2022/10/12 03:55:40;;;;;;;18.80;9.30;;;;;;;9.76;69.12;102551.25;6242155;22;20122;-73
2022/10/12 03:58:06;;;;;;;19.48;9.15;;;;;;;9.77;68.90;102555.63;6248650;22;20086;-72
2022/10/12 04:00:31;;;;;;;18.52;9.35;;;;;;;9.74;68.59;102553.81;6239399;22;20479;-72
2022/10/12 04:02:57;;;;;;;17.45;10.50;;;;;;;9.74;68.93;102552.91;6243545;22;20016;-72
2022/10/12 04:05:22;;;;;;;20.83;11.02;;;;;;;9.73;68.80;102557.22;6241680;22;20004;-72
2022/10/12 04:07:48;;;;;;;23.42;10.43;;;;;;;9.78;68.89;102552.22;6246210;22;20129;-72
2022/10/12 04:10:13;;;;;;;18.75;11.05;;;;;;;9.74;69.16;102553.81;6248908;22;20511;-72
2022/10/12 04:12:39;;;;;;;24.98;10.75;;;;;;;9.75;68.44;102541.69;6240303;22;20011;-73
2022/10/12 04:15:05;;;;;;;23.08;10.88;;;;;;;9.83;68.50;102547.19;6249465;22;20343;-72
2022/10/12 04:17:30;;;;;;;18.63;11.02;;;;;;;9.85;69.18;102548.16;6239873;22;20181;-73
2022/10/12 04:19:55;;;;;;;19.08;10.02;;;;;;;9.85;69.01;102545.56;6222022;22;20082;-73
2022/10/12 04:22:22;;;;;;;22.38;11.43;;;;;;;9.91;69.29;102546.72;6246798;22;20039;-73
2022/10/12 04:24:48;;;;;;;20.58;11.52;;;;;;;9.96;68.98;102544.28;6243754;22;20083;-72
2022/10/12 04:27:13;;;;;;;19.45;11.27;;;;;;;10.05;68.96;102547.31;6249178;22;20574;-74
2022/10/12 04:29:39;;;;;;;23.85;11.77;;;;;;;10.09;69.52;102534.47;6240660;22;21322;-72
2022/10/12 04:32:04;;;;;;;24.98;12.15;;;;;;;10.13;68.94;102541.56;6216734;22;20535;-74
2022/10/12 04:34:30;;;;;;;23.10;11.80;;;;;;;10.13;69.52;102536.34;6246302;22;20355;-74
2022/10/12 04:36:55;;;;;;;21.42;10.93;;;;;;;10.14;69.36;102535.53;6241534;22;20118;-74
2022/10/12 04:39:21;;;;;;;19.85;11.25;;;;;;;10.13;69.33;102533.75;6246666;22;20042;-73
2022/10/12 04:41:46;;;;;;;21.58;11.02;;;;;;;10.20;68.85;102540.16;6245294;22;20035;-73
2022/10/12 04:44:11;;;;;;;22.20;11.63;;;;;;;10.23;69.36;102532.47;6250318;22;20014;-73
2022/10/12 04:46:37;;;;;;;22.23;11.65;;;;;;;10.26;69.41;102531.69;6248538;22;20007;-72
2022/10/12 04:49:02;;;;;;;19.67;11.13;;;;;;;10.32;69.43;102531.94;6246270;22;20007;-73
2022/10/12 04:51:27;;;;;;;24.73;13.27;;;;;;;10.34;69.42;102520.75;6248186;22;20007;-72
2022/10/12 04:53:53;;;;;;;20.65;11.07;;;;;;;10.40;69.30;102518.41;6245568;22;20007;-73
2022/10/12 04:56:18;;;;;;;19.77;11.45;;;;;;;10.46;69.41;102516.03;6249980;22;20013;-72
2022/10/12 04:58:44;;;;;;;20.42;11.45;;;;;;;10.50;69.15;102517.91;6249157;22;20015;-73
2022/10/12 05:01:09;;;;;;;18.33;10.88;;;;;;;10.54;69.87;102508.53;6216367;22;20073;-74
2022/10/12 05:03:34;;;;;;;20.70;11.45;;;;;;;10.56;69.46;102518.16;6245838;22;20017;-73
2022/10/12 05:06:00;;;;;;;23.10;12.18;;;;;;;10.61;69.57;102512.25;6216322;22;20099;-72
2022/10/12 05:08:25;;;;;;;20.42;12.27;;;;;;;10.64;70.35;102518.47;6247801;22;20009;-72
2022/10/12 05:10:51;;;;;;;21.20;11.63;;;;;;;10.67;69.80;102517.72;6221518;22;20003;-72
2022/10/12 05:13:17;;;;;;;25.38;12.90;;;;;;;10.71;70.04;102509.16;6241453;22;20008;-72
2022/10/12 05:15:43;;;;;;;23.40;12.27;;;;;;;10.75;69.44;102508.44;6221702;22;19999;-73
2022/10/12 05:18:08;;;;;;;23.10;12.18;;;;;;;10.73;69.82;102512.75;6247946;22;20007;-73
2022/10/12 05:20:34;;;;;;;19.77;11.10;;;;;;;10.69;69.75;102514.31;6250051;22;20177;-73
2022/10/12 05:22:59;;;;;;;21.27;11.68;;;;;;;10.63;69.15;102514.06;6250163;22;20366;-74
2022/10/12 05:25:25;;;;;;;24.42;12.90;;;;;;;10.48;69.55;102518.72;6238397;22;20011;-73
2022/10/12 05:27:50;;;;;;;23.05;11.63;;;;;;;10.50;69.23;102517.91;6249365;22;20118;-72
2022/10/12 05:30:16;;;;;;;23.27;12.18;;;;;;;10.45;69.68;102516.84;6246089;22;20008;-73
2022/10/12 05:32:43;;;;;;;21.20;11.52;;;;;;;10.42;68.88;102519.34;6222124;22;20335;-73
2022/10/12 05:35:09;;;;;;;21.13;11.27;;;;;;;10.34;69.19;102520.75;6251556;22;20007;-72
2022/10/12 05:37:34;;;;;;;20.58;11.93;;;;;;;10.30;68.90;102518.84;6240439;22;20007;-72
2022/10/12 05:40:00;;;;;;;18.52;10.82;;;;;;;10.26;68.94;102516.03;6249190;22;20011;-72
2022/10/12 05:42:25;;;;;;;20.98;11.55;;;;;;;10.20;68.94;102516.69;6243375;22;20016;-73
2022/10/12 05:44:50;;;;;;;19.80;11.23;;;;;;;10.19;68.63;102520.09;6248537;22;20031;-72
2022/10/12 05:47:16;;;;;;;20.33;11.25;;;;;;;10.16;68.77;102514.75;6247541;22;20331;-72
2022/10/12 05:49:41;;;;;;;22.50;11.05;;;;;;;10.14;69.08;102517.28;6242493;22;20004;-72
2022/10/12 05:52:07;;;;;;;23.55;12.05;;;;;;;10.08;68.95;102517.03;6248320;22;20022;-72
2022/10/12 05:54:32;;;;;;;21.33;11.90;;;;;;;10.05;69.24;102509.13;6244143;22;20450;-73
2022/10/12 05:56:57;;;;;;;24.55;12.10;;;;;;;10.04;69.15;102512.53;6249177;22;20008;-73
2022/10/12 05:59:23;;;;;;;22.48;13.82;;;;;;;9.87;70.03;102513.56;6242248;22;20071;-72
2022/10/12 06:01:48;;;;;;;21.45;12.93;;;;;;;9.95;69.55;102525.16;6248180;22;20094;-73
2022/10/12 06:04:14;;;;;;;26.05;13.00;;;;;;;9.92;69.64;102513.75;6248588;22;20039;-73
2022/10/12 06:06:39;;;;;;;24.38;12.45;;;;;;;9.93;69.91;102515.53;6217032;22;20430;-73
2022/10/12 06:09:05;;;;;;;22.27;12.35;;;;;;;9.94;69.13;102512.09;6249216;22;20428;-74
2022/10/12 06:11:31;;;;;;;21.67;12.73;;;;;;;9.89;69.50;102513.59;6241665;22;20040;-72
2022/10/12 06:13:56;;;;;;;24.98;11.90;;;;;;;9.90;69.63;102512.78;6246838;22;20353;-72
2022/10/12 06:16:22;;;;;;;18.73;11.50;;;;;;;9.90;69.67;102510.16;6249557;22;20039;-72
2022/10/12 06:18:47;;;;;;;24.45;13.10;;;;;;;9.89;69.56;102503.19;6245370;22;20065;-73
2022/10/12 06:21:12;;;;;;;21.30;12.18;;;;;;;9.91;69.83;102505.03;6251320;22;20818;-73
2022/10/12 06:23:38;;;;;;;21.92;12.70;;;;;;;9.94;69.51;102502.53;6239627;22;21432;-73
2022/10/12 06:26:03;;;;;;;20.58;12.05;;;;;;;10.00;69.63;102500.19;6249223;22;20086;-72
2022/10/12 06:28:30;;;;;;;20.25;11.85;;;;;;;10.03;70.25;102496.84;6249357;22;20450;-73
2022/10/12 06:30:58;;;;;;;20.55;12.75;;;;;;;10.15;69.56;102500.84;6246138;22;20023;-73
2022/10/12 06:33:24;;;;;;;23.48;13.50;;;;;;;10.08;70.25;102498.78;6243110;22;20010;-73
2022/10/12 06:35:49;;;;;;;24.85;13.13;;;;;;;10.22;70.36;102495.91;6244385;22;20015;-71
2022/10/12 06:38:15;;;;;;;20.38;12.70;;;;;;;10.39;70.40;102495.75;6222308;22;20022;-72
2022/10/12 06:40:41;;;;;;;24.30;12.68;;;;;;;10.41;70.69;102501.03;6250058;22;20427;-74
2022/10/12 06:43:06;;;;;;;25.30;13.38;;;;;;;10.45;70.89;102503.81;6242223;22;20031;-73
2022/10/12 06:45:32;;;;;;;24.50;14.00;;;;;;;10.63;70.96;102502.75;6242401;22;20050;-73
2022/10/12 06:47:57;;;;;;;24.90;14.07;;;;;;;10.73;71.22;102502.31;6239841;22;20179;-72
2022/10/12 06:50:24;;;;;;;27.67;15.95;;;;;;;10.97;71.82;102500.63;6247237;22;20075;-73
2022/10/12 06:52:49;;;;;;;31.55;17.08;;;;;;;11.27;71.60;102501.75;6245702;22;20018;-73
2022/10/12 06:55:15;;;;;;;28.52;15.32;;;;;;;11.55;71.03;102497.50;6235302;22;20007;-73
2022/10/12 06:57:40;;;;;;;29.38;13.98;;;;;;;11.75;71.04;102502.63;6217629;22;20066;-71
2022/10/12 07:00:06;;;;;;;23.00;14.00;;;;;;;11.94;70.75;102506.75;6240476;22;20126;-72
2022/10/12 07:02:32;;;;;;;24.50;12.70;;;;;;;11.98;69.98;102506.00;6245096;22;20020;-73
2022/10/12 07:04:58;;;;;;;27.48;12.75;;;;;;;12.04;70.05;102507.94;6246402;22;20067;-73
2022/10/12 07:07:23;;;;;;;25.38;11.65;;;;;;;12.13;69.68;102500.41;6233970;22;20087;-72
2022/10/12 07:09:50;;;;;;;22.02;11.85;;;;;;;12.20;68.87;102499.75;6245901;22;20082;-73
2022/10/12 07:12:16;;;;;;;22.85;11.55;;;;;;;12.20;68.66;102502.38;6243465;22;20445;-72
2022/10/12 07:14:41;;;;;;;20.23;10.95;;;;;;;12.13;68.60;102495.19;6240015;22;20086;-74
2022/10/12 07:17:07;;;;;;;20.17;11.32;;;;;;;12.08;68.21;102504.59;6247344;22;20071;-72
2022/10/12 07:19:32;;;;;;;20.83;11.02;;;;;;;12.14;67.89;102500.44;6238043;22;20038;-73
2022/10/12 07:21:57;;;;;;;21.08;11.15;;;;;;;12.04;67.92;102507.94;6219182;22;20042;-73
2022/10/12 07:24:23;;;;;;;21.23;10.55;;;;;;;12.04;67.75;102503.59;6240990;22;20035;-74
2022/10/12 07:26:49;;;;;;;20.40;11.35;;;;;;;12.00;68.05;102504.34;6249153;22;20038;-73
2022/10/12 07:29:15;;;;;;;25.67;11.80;;;;;;;12.03;67.89;102499.22;6219780;22;20003;-73
2022/10/12 07:31:41;;;;;;;23.63;12.27;;;;;;;11.95;67.62;102502.44;6240980;22;20096;-73
2022/10/12 07:34:07;;;;;;;25.38;12.75;;;;;;;12.01;67.48;102505.25;6218861;22;20069;-72
2022/10/12 07:36:32;;;;;;;26.17;11.85;;;;;;;12.19;67.12;102504.13;6240355;22;20016;-71
2022/10/12 07:38:58;;;;;;;20.85;12.70;;;;;;;12.16;67.27;102506.63;6245622;22;20493;-73
2022/10/12 07:41:23;;;;;;;21.85;12.65;;;;;;;12.26;67.12;102505.19;6237606;22;20328;-73
2022/10/12 07:43:54;;;;;;;24.95;12.48;;;;;;;12.41;67.14;102503.06;6220177;22;20104;-72
2022/10/12 07:46:19;;;;;;;20.95;12.10;;;;;;;12.55;66.91;102495.66;6245091;22;20037;-73
2022/10/12 07:48:45;;;;;;;28.60;12.70;;;;;;;12.73;65.87;102487.50;6245878;22;20123;-72
2022/10/12 07:51:10;;;;;;;21.48;12.48;;;;;;;12.65;65.98;102494.22;6223752;22;20019;-71
2022/10/12 07:53:37;;;;;;;24.15;12.10;;;;;;;12.46;66.06;102498.88;6239623;22;20303;-73
2022/10/12 07:56:05;;;;;;;22.35;11.35;;;;;;;12.77;65.70;102498.09;6245584;22;20017;-72
2022/10/12 07:58:30;;;;;;;21.73;11.50;;;;;;;12.84;65.16;102500.06;6246038;22;20004;-72
2022/10/12 08:01:02;;;;;;;26.58;11.73;;;;;;;13.11;64.49;102502.59;6241491;22;20008;-72
2022/10/12 08:03:27;;;;;;;20.48;11.40;;;;;;;13.15;64.07;102507.09;6241362;22;20012;-73
2022/10/12 08:05:53;;;;;;;19.02;10.90;;;;;;;13.41;63.56;102510.47;6241702;22;20287;-72
2022/10/12 08:08:18;;;;;;;20.58;10.75;;;;;;;13.56;63.19;102512.59;6248003;22;20091;-73
2022/10/12 08:10:43;;;;;;;23.90;11.40;;;;;;;13.76;62.30;102514.94;6244395;22;20129;-71
2022/10/12 08:13:09;;;;;;;20.95;11.50;;;;;;;13.73;62.00;102522.69;6212824;22;20004;-71
2022/10/12 08:15:34;;;;;;;23.55;11.52;;;;;;;13.77;62.13;102514.09;6245276;22;20003;-73
2022/10/12 08:18:00;;;;;;;20.63;10.85;;;;;;;13.81;62.04;102510.69;6245765;22;20011;-71
2022/10/12 08:20:25;;;;;;;23.20;10.40;;;;;;;13.90;63.08;102511.78;6222008;22;20459;-72
2022/10/12 08:22:50;;;;;;;23.75;10.43;;;;;;;14.07;62.28;102506.13;6249032;22;20089;-73
2022/10/12 08:25:16;;;;;;;21.42;10.70;;;;;;;14.02;62.03;102504.22;6241461;22;20061;-72
2022/10/12 08:27:42;;;;;;;17.40;9.88;;;;;;;13.84;61.66;102504.66;6220743;22;20587;-72
2022/10/12 08:30:07;;;;;;;19.13;9.95;;;;;;;14.41;60.73;102496.44;6245526;22;20047;-73
2022/10/12 08:32:33;;;;;;;21.40;10.60;;;;;;;14.52;59.82;102505.47;6244077;22;20499;-72
2022/10/12 08:34:58;;;;;;;20.98;10.48;;;;;;;14.54;60.16;102507.28;6248475;22;20092;-72
2022/10/12 08:37:23;;;;;;;22.02;10.20;;;;;;;14.28;60.13;102512.72;6241829;22;20550;-72
2022/10/12 08:39:50;;;;;;;22.40;10.35;;;;;;;14.50;60.18;102518.56;6246477;22;20008;-72
2022/10/12 08:42:34;;;;;;;20.77;9.98;;;;;;;14.35;60.42;102519.88;6214837;22;20042;-73
2022/10/12 08:45:09;;;;;;;;;;;;;;;14.64;59.76;102515.38;6248871;22;20444;-72
2022/10/12 08:47:42;;;;;;;19.80;9.68;;;;;;;14.79;59.43;102513.06;6239055;22;19973;-73
2022/10/12 08:50:16;;;;;;;22.67;10.20;;;;;;;14.79;58.93;102503.47;6248550;22;20011;-71
2022/10/12 08:52:47;;;;;;;;;;;;;;;14.87;59.09;102493.13;6218691;22;20296;-73
2022/10/12 08:55:33;;;;;;;18.30;9.18;;;;;;;14.74;59.02;102489.34;6244650;22;19998;-73
2022/10/12 08:57:58;;;;;;;19.42;9.20;;;;;;;15.04;58.70;102478.63;6249660;22;20038;-73
2022/10/12 09:00:24;;;;;;;23.23;9.68;;;;;;;15.33;57.93;102479.19;6245222;22;20003;-73
2022/10/12 09:03:17;;;;;;;20.60;9.35;;;;;;;15.22;57.99;102486.88;6246616;22;20046;-73
2022/10/12 09:06:06;;;;;;;19.45;9.35;;;;;;;15.25;56.91;102488.66;6238901;22;20097;-73
2022/10/12 09:08:50;;;;;;;27.02;9.18;;;;;;;15.24;57.07;102490.41;6251206;22;20461;-73
2022/10/12 09:11:51;;;;;;;21.77;9.98;;;;;;;15.24;57.41;102494.78;6246445;22;20069;-73
2022/10/12 09:14:22;;;;;;;19.05;9.80;;;;;;;15.30;57.61;102497.53;6198061;22;20030;-72
2022/10/12 09:16:50;;;;;;;20.10;9.48;;;;;;;15.24;57.52;102506.19;6224548;22;20003;-72
2022/10/12 09:19:19;;;;;;;20.40;9.18;;;;;;;15.54;56.92;102511.19;6243347;22;20273;-73
2022/10/12 09:21:47;;;;;;;17.58;8.85;;;;;;;15.75;56.69;102522.09;6242151;22;20435;-72
2022/10/12 09:24:18;;;;;;;19.13;8.90;;;;;;;15.51;55.94;102518.06;6242003;22;20011;-70
2022/10/12 09:26:47;;;;;;;18.00;9.13;;;;;;;15.63;56.19;102520.97;6248452;22;20000;-72
2022/10/12 09:29:24;;;;;;;17.65;9.10;;;;;;;15.76;55.41;102513.34;6250394;22;20083;-73
2022/10/12 09:32:27;;;;;;;22.60;10.05;;;;;;;15.76;55.49;102513.34;6248002;22;20003;-73
2022/10/12 09:34:53;;;;;;;23.60;9.98;;;;;;;15.56;55.63;102514.72;6246890;22;20059;-72
2022/10/12 09:37:26;;;;;;;20.35;9.00;;;;;;;15.82;55.37;102517.81;6238347;22;20031;-72
2022/10/12 09:39:52;;;;;;;20.38;8.27;;;;;;;15.73;55.58;102509.78;6250015;22;20007;-72
2022/10/12 09:42:17;;;;;;;20.38;8.55;;;;;;;15.65;56.02;102500.88;6215064;22;20534;-72
2022/10/12 09:44:46;;;;;;;23.48;8.80;;;;;;;15.61;54.87;102499.94;6247672;22;20075;-73
2022/10/12 09:47:25;;;;;;;14.40;8.07;;;;;;;16.07;54.08;102488.47;6248058;22;20008;-72
2022/10/12 09:49:53;;;;;;;19.05;8.38;;;;;;;16.02;54.43;102483.97;6247112;22;20008;-73
2022/10/12 09:52:22;;;;;;;19.15;7.53;;;;;;;16.30;53.80;102490.56;6245438;22;20490;-72
2022/10/12 09:54:54;;;;;;;15.98;8.02;;;;;;;16.42;53.56;102482.84;6243433;22;20007;-72
2022/10/12 09:57:32;;;;;;;24.45;6.90;;;;;;;16.45;52.42;102477.66;6244416;22;20014;-72
2022/10/12 10:00:00;;;;;;;21.92;7.30;;;;;;;16.54;52.30;102469.88;6244277;22;20069;-72
2022/10/12 10:02:26;;;;;;;16.98;5.70;;;;;;;16.59;51.92;102457.66;6246197;22;20061;-71
2022/10/12 10:04:53;;;;;;;16.58;5.72;;;;;;;16.62;51.60;102456.00;6219640;22;20014;-72
2022/10/12 10:07:21;;;;;;;18.52;5.53;;;;;;;16.63;51.52;102447.22;6240398;22;20094;-72
2022/10/12 10:10:01;;;;;;;15.30;6.03;;;;;;;16.36;50.34;102435.38;6220587;22;20007;-73
2022/10/12 10:12:27;;;;;;;18.67;6.25;;;;;;;16.45;50.55;102425.00;6242663;22;20007;-73
2022/10/12 10:14:58;;;;;;;14.82;6.60;;;;;;;16.65;49.84;102426.16;6245616;22;20003;-72
2022/10/12 10:17:30;;;;;;;18.60;6.55;;;;;;;16.29;50.69;102420.34;6240524;22;20411;-72
2022/10/12 10:19:57;;;;;;;13.82;6.43;;;;;;;16.81;49.61;102408.81;6248977;22;20075;-72
2022/10/12 10:22:24;;;;;;;15.20;7.07;;;;;;;16.44;49.37;102410.06;6244466;22;20073;-73
2022/10/12 10:25:00;;;;;;;20.77;8.40;;;;;;;16.24;49.59;102409.78;6240912;22;20046;-73
2022/10/12 10:27:37;;;;;;;20.98;8.23;;;;;;;16.13;49.66;102396.47;6244285;22;20336;-73
2022/10/12 10:30:16;;;;;;;17.27;8.10;;;;;;;16.84;48.81;102398.31;6218470;22;20050;-73
2022/10/12 10:32:43;;;;;;;20.27;8.73;;;;;;;16.65;50.03;102405.09;6244517;22;20491;-73
2022/10/12 10:35:11;;;;;;;22.77;9.88;;;;;;;16.42;49.54;102395.97;6247756;22;20407;-72
2022/10/12 10:37:43;;;;;;;22.17;9.68;;;;;;;16.74;49.63;102394.69;6211648;22;20259;-73
2022/10/12 10:40:22;;;;;;;19.92;9.80;;;;;;;16.85;49.17;102390.44;6245947;22;20077;-72
2022/10/12 10:42:51;;;;;;;20.77;10.23;;;;;;;16.94;48.85;102381.75;6241602;22;20012;-73
2022/10/12 10:45:26;;;;;;;23.05;10.68;;;;;;;17.09;49.06;102383.66;6243863;22;20012;-71
2022/10/12 10:48:00;;;;;;;26.90;10.88;;;;;;;16.79;48.99;102386.84;6241283;22;20066;-73
2022/10/12 10:50:34;;;;;;;22.08;10.48;;;;;;;16.78;49.43;102383.31;6247701;22;20086;-74
2022/10/12 10:53:03;;;;;;;18.73;10.40;;;;;;;16.92;50.33;102384.38;6246129;22;20035;-71
2022/10/12 10:55:58;;;;;;;22.50;11.60;;;;;;;17.23;49.22;102389.97;6235943;22;20016;-72
2022/10/12 10:58:33;;;;;;;21.98;11.50;;;;;;;17.52;49.59;102385.84;6246941;22;20007;-72
2022/10/12 11:01:36;;;;;;;22.10;11.60;;;;;;;17.14;49.54;102389.88;6214878;22;20011;-73
2022/10/12 11:04:08;;;;;;;20.83;11.02;;;;;;;17.46;49.00;102383.16;6245580;22;20015;-72
2022/10/12 11:06:38;;;;;;;24.15;10.65;;;;;;;17.54;48.83;102380.59;6242074;22;20019;-72
2022/10/12 11:09:30;;;;;;;23.80;11.00;;;;;;;17.80;47.90;102379.97;6247172;22;20095;-73
2022/10/12 11:12:04;;;;;;;21.80;10.38;;;;;;;17.94;49.25;102372.16;6241285;22;20119;-73
2022/10/12 11:14:39;;;;;;;20.85;10.60;;;;;;;17.90;48.66;102369.47;6248924;22;20014;-72
2022/10/12 11:17:09;;;;;;;;;;;;;;;18.12;47.33;102366.09;6247838;22;20497;-72
2022/10/12 11:19:57;;;;;;;22.33;11.57;;;;;;;18.17;48.07;102380.22;6241915;22;20314;-72
2022/10/12 11:22:39;;;;;;;23.88;11.48;;;;;;;18.14;47.21;102375.81;6246347;22;20045;-72
2022/10/12 11:25:27;;;;;;;19.00;10.93;;;;;;;18.45;46.52;102383.88;6243077;22;20019;-73